createdAt,value
2018-01-31T12:04:36.003Z,4.33
2018-01-31T12:07:03.550Z,5.53
2018-01-31T12:09:39.673Z,7.23
2018-01-31T12:12:07.276Z,3.87
2018-01-31T13:46:46.149Z,3.70
2018-01-31T13:52:29.561Z,2.40
2018-01-31T13:55:09.100Z,2.43
2018-01-31T13:57:48.394Z,2.40
2018-01-31T14:00:27.895Z,2.00
2018-01-31T14:03:07.317Z,2.40
2018-01-31T14:05:46.810Z,2.40
2018-01-31T14:08:26.147Z,5.20
2018-01-31T14:11:05.430Z,6.47
2018-01-31T14:13:44.851Z,4.93
2018-01-31T14:16:25.024Z,4.23
2018-01-31T14:22:18.006Z,5.60
2018-01-31T14:24:57.186Z,6.53
2018-01-31T14:27:36.553Z,5.90
2018-01-31T14:30:15.931Z,6.93
2018-01-31T14:32:55.341Z,8.70
2018-01-31T14:35:34.858Z,6.40
2018-01-31T14:38:01.871Z,7.10
2018-01-31T14:40:28.875Z,8.90
2018-01-31T14:42:55.983Z,10.23
2018-01-31T14:45:23.050Z,11.50
2018-01-31T14:47:50.063Z,12.37
2018-01-31T14:50:17.132Z,9.20
2018-01-31T14:52:44.191Z,10.73
2018-01-31T14:55:11.198Z,8.97
2018-01-31T14:57:38.210Z,11.87
2018-01-31T15:00:05.304Z,12.47
2018-01-31T15:02:32.359Z,11.20
2018-01-31T15:04:59.355Z,20.90
2018-01-31T15:07:26.362Z,21.93
2018-01-31T15:09:53.366Z,18.63
2018-01-31T15:12:20.382Z,13.70
2018-01-31T15:14:47.446Z,15.00
2018-01-31T15:17:14.519Z,13.63
2018-01-31T15:22:14.919Z,27.47
2018-01-31T15:24:42.555Z,23.63
2018-01-31T15:27:10.652Z,27.80
2018-01-31T15:29:37.684Z,34.60
2018-01-31T15:32:04.690Z,40.73
2018-01-31T15:34:31.718Z,41.10
2018-01-31T15:36:58.791Z,50.73
2018-01-31T15:39:25.894Z,48.50
2018-01-31T15:41:52.906Z,51.37
2018-01-31T15:44:19.944Z,64.63
2018-01-31T15:46:46.958Z,49.10
2018-01-31T15:49:13.975Z,42.10
2018-01-31T15:51:41.046Z,45.20
2018-01-31T15:54:08.110Z,41.63
2018-01-31T15:56:35.176Z,33.67
2018-01-31T15:59:02.242Z,29.97
2018-01-31T16:01:29.245Z,27.53
2018-01-31T16:03:56.323Z,40.23
2018-01-31T16:06:23.336Z,50.80
2018-01-31T16:08:50.345Z,49.20
2018-01-31T16:11:17.350Z,36.43
2018-01-31T16:13:44.475Z,37.60
2018-01-31T16:16:11.508Z,34.30
2018-01-31T16:18:50.906Z,33.00
2018-01-31T16:21:25.182Z,36.17
2018-01-31T16:23:52.811Z,42.50
2018-01-31T16:26:20.423Z,37.90
2018-01-31T16:28:59.919Z,39.03
2018-01-31T16:31:39.282Z,44.50
2018-01-31T16:34:06.886Z,49.47
2018-01-31T16:36:34.491Z,48.60
2018-01-31T16:39:02.034Z,49.33
2018-01-31T16:41:29.593Z,50.50
2018-01-31T16:43:57.182Z,54.40
2018-01-31T16:46:24.710Z,53.33
2018-01-31T16:48:52.268Z,56.63
2018-01-31T16:51:19.895Z,62.60
2018-01-31T16:53:47.500Z,62.70
2018-01-31T16:56:15.046Z,66.47
2018-01-31T16:58:42.607Z,67.50
2018-01-31T17:01:10.169Z,73.20
2018-01-31T17:03:37.727Z,79.20
2018-01-31T17:06:05.339Z,62.03
2018-01-31T17:08:33.003Z,52.17
2018-01-31T17:11:00.555Z,48.50
2018-01-31T17:13:28.176Z,45.03
2018-01-31T17:15:55.732Z,47.33
2018-01-31T17:18:23.282Z,52.53
2018-01-31T17:20:50.829Z,68.43
2018-01-31T17:23:18.427Z,58.90
2018-01-31T17:25:57.642Z,64.87
2018-01-31T17:28:25.198Z,59.83
2018-01-31T17:30:52.746Z,54.87
2018-01-31T17:33:20.390Z,71.17
2018-01-31T17:35:48.760Z,68.70
2018-01-31T17:38:16.315Z,78.40
2018-01-31T17:40:43.878Z,70.33
2018-01-31T17:43:11.548Z,93.13
2018-01-31T17:45:39.154Z,72.83
2018-01-31T17:48:06.810Z,78.57
2018-01-31T17:50:34.368Z,73.20
2018-01-31T17:53:02.043Z,67.37
2018-01-31T17:55:29.595Z,57.83
2018-01-31T17:57:57.147Z,60.10
2018-01-31T18:00:24.747Z,47.50
2018-01-31T18:02:52.351Z,49.27
2018-01-31T18:05:19.889Z,63.10
2018-01-31T18:07:47.447Z,57.00
2018-01-31T18:10:14.998Z,53.30
2018-01-31T18:12:42.598Z,64.83
2018-01-31T18:15:10.142Z,69.97
2018-01-31T18:17:37.745Z,76.73
2018-01-31T18:20:05.351Z,71.07
2018-01-31T18:22:32.893Z,79.30
2018-01-31T18:25:00.478Z,72.60
2018-01-31T18:27:28.096Z,56.10
2018-01-31T18:29:55.643Z,60.63
2018-01-31T18:32:23.260Z,75.27
2018-01-31T18:34:50.887Z,64.20
2018-01-31T18:37:18.486Z,64.53
2018-01-31T18:39:46.094Z,86.80
2018-01-31T18:42:13.640Z,69.17
2018-01-31T18:44:41.197Z,69.47
2018-01-31T18:47:08.744Z,78.47
2018-01-31T18:49:36.327Z,66.87
2018-01-31T18:52:03.936Z,62.00
2018-01-31T18:54:31.590Z,63.23
2018-01-31T18:56:59.141Z,61.40
2018-01-31T18:59:26.691Z,65.00
2018-01-31T19:01:54.247Z,91.43
2018-01-31T19:04:21.794Z,75.77
2018-01-31T19:06:49.411Z,54.00
2018-01-31T19:09:17.015Z,59.00
2018-01-31T19:11:44.623Z,53.77
2018-01-31T19:14:12.166Z,48.80
2018-01-31T19:16:39.717Z,41.13
2018-01-31T19:19:07.275Z,29.63
2018-01-31T19:21:34.830Z,36.33
2018-01-31T19:24:02.382Z,39.10
2018-01-31T19:26:29.959Z,45.60
2018-01-31T19:28:57.607Z,46.07
2018-01-31T19:31:25.147Z,47.60
2018-01-31T19:33:52.694Z,50.00
2018-01-31T19:36:20.303Z,48.70
2018-01-31T19:38:47.926Z,46.07
2018-01-31T19:41:15.486Z,46.47
2018-01-31T19:43:43.033Z,45.47
2018-01-31T19:46:10.630Z,42.10
2018-01-31T19:48:38.182Z,47.77
2018-01-31T19:51:05.890Z,48.80
2018-01-31T19:53:33.449Z,51.30
2018-01-31T19:56:01.098Z,50.70
2018-01-31T19:58:28.689Z,48.77
2018-01-31T20:00:56.233Z,49.67
2018-01-31T20:03:23.827Z,39.67
2018-01-31T20:05:51.425Z,35.40
2018-01-31T20:08:18.969Z,32.30
2018-01-31T20:10:46.542Z,36.57
2018-01-31T20:13:14.247Z,39.63
2018-01-31T20:15:41.806Z,37.03
2018-01-31T20:18:09.366Z,40.67
2018-01-31T20:20:37.036Z,40.97
2018-01-31T20:23:04.638Z,32.50
2018-01-31T20:25:32.242Z,34.73
2018-01-31T20:27:59.819Z,34.90
2018-01-31T20:30:27.591Z,31.00
2018-01-31T20:32:55.224Z,31.60
2018-01-31T20:35:23.764Z,39.50
2018-01-31T20:37:51.308Z,34.17
2018-01-31T20:40:19.083Z,31.00
2018-01-31T20:42:46.751Z,34.07
2018-01-31T20:45:14.382Z,34.70
2018-01-31T20:47:42.666Z,34.87
2018-01-31T20:50:10.342Z,41.53
2018-01-31T20:52:38.036Z,29.77
2018-01-31T20:55:05.751Z,26.23
2018-01-31T20:57:33.363Z,28.00
2018-01-31T21:00:01.051Z,29.60
2018-01-31T21:02:28.599Z,17.97
2018-01-31T21:07:54.488Z,12.27
2018-01-31T21:10:22.027Z,8.00
2018-01-31T21:12:49.730Z,8.60
2018-01-31T21:15:17.339Z,6.83
2018-01-31T21:17:44.874Z,7.13
2018-01-31T21:20:12.419Z,5.80
2018-01-31T21:22:40.047Z,5.00
2018-01-31T21:25:07.671Z,4.67
2018-01-31T21:27:35.210Z,4.10
2018-01-31T21:30:02.773Z,3.43
2018-01-31T21:32:30.665Z,4.73
2018-01-31T21:35:04.623Z,2.77
2018-01-31T21:37:32.227Z,3.70
2018-01-31T21:40:03.934Z,7.23
2018-01-31T21:42:41.868Z,4.53
2018-01-31T21:45:10.811Z,4.10
2018-01-31T21:47:38.407Z,6.00
2018-01-31T21:50:06.007Z,9.93
2018-01-31T21:52:40.686Z,10.00
2018-01-31T21:55:08.265Z,5.50
2018-01-31T21:57:47.456Z,7.30
2018-01-31T22:00:15.136Z,11.50
2018-01-31T22:02:43.626Z,10.97
2018-01-31T22:05:11.171Z,9.73
2018-01-31T22:07:38.907Z,9.07
2018-01-31T22:10:06.686Z,9.90
2018-01-31T22:12:35.352Z,9.43
2018-01-31T22:15:03.024Z,10.50
2018-01-31T22:17:30.682Z,9.47
2018-01-31T22:19:58.222Z,10.70
2018-01-31T22:22:25.847Z,12.80
2018-01-31T22:24:53.591Z,16.27
2018-01-31T22:27:21.130Z,16.47
2018-01-31T22:29:49.727Z,17.33
2018-01-31T22:32:27.643Z,15.33
2018-01-31T22:34:55.423Z,12.40
2018-01-31T22:37:25.671Z,13.50
2018-01-31T22:39:53.215Z,10.37
2018-01-31T22:42:20.823Z,12.93
2018-01-31T22:44:58.884Z,13.90
2018-01-31T22:47:26.487Z,13.90
2018-01-31T22:49:54.111Z,14.67
2018-01-31T22:52:21.711Z,14.17
2018-01-31T22:54:49.982Z,17.37
2018-01-31T22:57:17.538Z,24.40
2018-01-31T22:59:45.974Z,18.43
2018-01-31T23:02:15.536Z,21.87
2018-01-31T23:04:43.346Z,15.40
2018-01-31T23:07:13.960Z,25.00
2018-01-31T23:09:43.280Z,19.87
2018-01-31T23:12:17.314Z,18.60
2018-01-31T23:14:54.823Z,19.17
2018-01-31T23:20:31.275Z,17.37
2018-01-31T23:22:59.188Z,21.70
2018-01-31T23:25:27.375Z,19.33
2018-01-31T23:27:54.927Z,20.90
2018-01-31T23:30:22.478Z,17.57
2018-01-31T23:32:51.126Z,18.90
2018-01-31T23:35:18.673Z,21.37
2018-01-31T23:37:46.975Z,17.93
2018-01-31T23:40:21.798Z,19.33
2018-01-31T23:42:50.160Z,22.30
2018-01-31T23:45:20.610Z,22.47
2018-01-31T23:47:52.638Z,26.37
2018-01-31T23:50:20.614Z,23.07
2018-01-31T23:52:48.218Z,18.60
2018-01-31T23:55:19.506Z,17.77
2018-01-31T23:57:50.119Z,20.20
